Time;durP1;ratioP1;P1;durP2;ratioP2;P2;SDS_P1;SDS_P2;PMS_P1;PMS_P2;Temp;Humidity;BMP_temperature;BMP_pressure;BME280_temperature;BME280_humidity;BME280_pressure;Samples;Min_cycle;Max_cycle;Signal;HPM_P1;HPM_P2
2023/05/01 00:02:09;;;;;;;4.85;2.22;;;12.10;59.70;;;;;;5040932;28;20050;-75
2023/05/01 00:04:36;;;;;;;5.20;2.10;;;12.00;59.80;;;;;;5049243;28;20320;-75
2023/05/01 00:07:03;;;;;;;5.05;2.00;;;11.90;60.10;;;;;;5046820;28;20145;-75
2023/05/01 00:09:31;;;;;;;5.18;2.50;;;11.90;60.10;;;;;;5047267;28;20530;-75
2023/05/01 00:11:57;;;;;;;6.30;2.17;;;11.80;60.40;;;;;;5040472;28;20656;-76
2023/05/01 00:14:24;;;;;;;5.03;2.15;;;11.70;60.50;;;;;;5044190;28;20053;-75
2023/05/01 00:16:53;;;;;;;6.00;2.30;;;11.70;60.70;;;;;;5063073;28;20050;-75
2023/05/01 00:19:20;;;;;;;5.93;2.15;;;11.60;60.80;;;;;;5044967;28;21037;-75
2023/05/01 00:21:47;;;;;;;5.32;2.47;;;11.50;61.00;;;;;;5046215;28;20184;-75
2023/05/01 00:24:15;;;;;;;5.80;2.22;;;11.50;61.00;;;;;;5046020;28;20454;-75
2023/05/01 00:26:41;;;;;;;5.53;2.30;;;11.50;61.00;;;;;;5052781;28;20057;-75
2023/05/01 00:29:08;;;;;;;6.73;2.50;;;11.50;60.90;;;;;;5048805;28;20053;-75
2023/05/01 00:31:35;;;;;;;6.20;2.30;;;11.50;61.00;;;;;;5048509;28;20050;-75
2023/05/01 00:34:05;;;;;;;5.45;2.50;;;11.50;61.00;;;;;;5032132;28;20053;-75
2023/05/01 00:36:32;;;;;;;5.60;2.10;;;11.50;61.00;;;;;;5048227;28;20049;-76
2023/05/01 00:38:59;;;;;;;5.13;2.33;;;11.50;61.00;;;;;;5045635;28;20061;-75
2023/05/01 00:41:27;;;;;;;6.20;2.23;;;11.50;61.00;;;;;;5048341;28;20049;-75
2023/05/01 00:43:54;;;;;;;5.28;2.17;;;11.50;61.10;;;;;;5048872;28;20068;-75
2023/05/01 00:46:21;;;;;;;7.88;2.60;;;11.50;61.00;;;;;;5048911;28;20124;-75
2023/05/01 00:48:48;;;;;;;7.82;2.70;;;11.50;61.00;;;;;;5028659;28;20058;-75
2023/05/01 00:51:17;;;;;;;6.53;2.28;;;11.50;61.00;;;;;;5020312;28;20065;-75
2023/05/01 00:53:45;;;;;;;5.17;2.50;;;11.50;61.10;;;;;;5012261;28;20104;-75
2023/05/01 00:56:11;;;;;;;5.75;2.47;;;11.50;61.10;;;;;;5012398;28;20522;-75
2023/05/01 00:58:38;;;;;;;5.38;2.40;;;11.60;61.00;;;;;;5027294;28;20136;-75
2023/05/01 01:01:07;;;;;;;5.20;2.00;;;11.60;61.00;;;;;;5047768;28;20049;-75
2023/05/01 01:03:34;;;;;;;8.00;2.38;;;11.50;61.10;;;;;;5047964;28;20112;-75
2023/05/01 01:06:09;;;;;;;6.13;2.10;;;11.50;61.10;;;;;;5031685;28;20060;-75
2023/05/01 01:08:43;;;;;;;6.55;2.55;;;11.50;61.30;;;;;;5047629;28;20053;-75
2023/05/01 01:11:18;;;;;;;6.28;2.50;;;11.50;61.30;;;;;;5031264;28;20041;-75
2023/05/01 01:14:07;;;;;;;6.18;2.42;;;11.50;61.30;;;;;;5030624;28;20073;-75
2023/05/01 01:16:42;;;;;;;4.88;2.33;;;11.50;61.20;;;;;;5042052;28;20141;-75
2023/05/01 01:19:31;;;;;;;4.67;2.07;;;11.50;61.30;;;;;;5039283;28;20046;-76
2023/05/01 01:22:04;;;;;;;5.82;2.50;;;11.50;61.20;;;;;;5036335;28;20045;-75
2023/05/01 01:24:57;;;;;;;5.07;2.20;;;11.50;61.30;;;;;;5027765;28;20050;-75
2023/05/01 01:28:03;;;;;;;5.07;2.10;;;11.50;61.20;;;;;;5037839;28;20057;-75
2023/05/01 01:31:01;;;;;;;7.65;2.42;;;11.50;61.20;;;;;;5014798;28;20050;-75
2023/05/01 01:33:54;;;;;;;4.93;2.23;;;11.50;61.10;;;;;;5027758;28;20132;-75
2023/05/01 01:36:31;;;;;;;5.43;2.30;;;11.40;61.10;;;;;;5044830;28;20065;-75
2023/05/01 01:39:06;;;;;;;5.63;2.28;;;11.40;61.40;;;;;;5033691;28;20178;-75
2023/05/01 01:41:35;;;;;;;5.38;2.20;;;11.40;61.50;;;;;;5047551;28;20046;-75
2023/05/01 01:44:09;;;;;;;5.07;2.03;;;11.40;61.50;;;;;;5029247;28;20046;-75
2023/05/01 01:46:40;;;;;;;5.80;2.30;;;11.30;61.60;;;;;;5031091;28;20088;-75
2023/05/01 01:49:15;;;;;;;6.32;2.40;;;11.30;61.70;;;;;;5047241;28;20097;-75
2023/05/01 01:51:43;;;;;;;4.88;2.40;;;11.30;61.90;;;;;;5030746;28;20045;-75
2023/05/01 01:54:13;;;;;;;5.97;2.15;;;11.30;62.00;;;;;;5047491;28;20053;-75
2023/05/01 01:56:42;;;;;;;5.63;2.28;;;11.20;62.10;;;;;;5030691;28;20055;-75
2023/05/01 01:59:10;;;;;;;6.30;2.50;;;11.20;62.10;;;;;;5047692;28;20718;-75
2023/05/01 02:01:40;;;;;;;8.20;2.75;;;11.10;62.20;;;;;;5046239;28;20585;-75
2023/05/01 02:04:10;;;;;;;5.03;2.55;;;11.10;62.30;;;;;;5031848;28;20050;-76
2023/05/01 02:06:38;;;;;;;7.03;2.55;;;11.10;62.40;;;;;;5047428;28;20073;-75
2023/05/01 02:09:06;;;;;;;5.75;2.85;;;11.10;62.50;;;;;;5046127;28;20077;-75
2023/05/01 02:11:35;;;;;;;6.73;2.80;;;11.00;62.50;;;;;;5030688;28;20140;-75
2023/05/01 02:14:04;;;;;;;8.02;3.05;;;11.00;62.60;;;;;;5055337;28;20057;-75
2023/05/01 02:16:33;;;;;;;7.63;3.30;;;11.00;62.60;;;;;;5047913;28;20053;-75
2023/05/01 02:19:01;;;;;;;7.40;2.90;;;10.90;62.70;;;;;;5040157;28;20050;-75
2023/05/01 02:21:31;;;;;;;6.90;3.13;;;10.90;62.70;;;;;;5046846;28;20044;-75
2023/05/01 02:24:01;;;;;;;6.40;2.97;;;10.90;62.80;;;;;;5029426;28;20585;-75
2023/05/01 02:26:29;;;;;;;7.45;3.20;;;10.80;62.90;;;;;;5048618;28;20057;-75
2023/05/01 02:28:58;;;;;;;6.70;2.88;;;10.80;62.80;;;;;;5038321;28;20460;-75
2023/05/01 02:31:25;;;;;;;5.38;2.97;;;10.80;62.80;;;;;;5055019;28;20065;-75
2023/05/01 02:33:53;;;;;;;7.00;3.10;;;10.80;62.90;;;;;;5047292;28;20487;-75
2023/05/01 02:36:20;;;;;;;7.73;3.10;;;10.80;62.80;;;;;;5044999;28;20095;-76
2023/05/01 02:38:49;;;;;;;6.88;3.33;;;10.70;62.90;;;;;;5030166;28;20053;-75
2023/05/01 02:41:19;;;;;;;7.05;3.40;;;10.70;62.90;;;;;;5038432;28;20713;-75
2023/05/01 02:43:47;;;;;;;6.30;3.25;;;10.70;63.00;;;;;;5030115;28;20531;-75
2023/05/01 02:46:16;;;;;;;6.63;2.88;;;10.60;63.00;;;;;;5029307;28;20507;-75
2023/05/01 02:48:44;;;;;;;23.40;4.30;;;10.60;63.10;;;;;;5026996;28;20180;-75
2023/05/01 02:51:12;;;;;;;8.07;3.20;;;10.60;63.20;;;;;;5049893;28;20045;-75
2023/05/01 02:53:40;;;;;;;8.73;3.50;;;10.60;63.10;;;;;;5036521;28;20551;-75
2023/05/01 02:56:18;;;;;;;6.10;3.03;;;10.50;63.00;;;;;;5051162;28;20057;-76
2023/05/01 02:58:45;;;;;;;7.15;3.17;;;10.50;63.10;;;;;;5047089;28;20112;-75
2023/05/01 03:01:12;;;;;;;7.00;3.00;;;10.50;63.20;;;;;;5037824;28;20061;-75
2023/05/01 03:03:39;;;;;;;6.55;2.85;;;10.50;63.20;;;;;;5029834;28;20046;-75
2023/05/01 03:06:06;;;;;;;7.32;3.38;;;10.50;63.20;;;;;;5026563;28;20471;-75
2023/05/01 03:08:33;;;;;;;7.63;3.40;;;10.40;63.40;;;;;;5046355;28;20119;-75
2023/05/01 03:11:00;;;;;;;7.22;3.15;;;10.40;63.50;;;;;;5029710;28;20085;-75
2023/05/01 03:13:28;;;;;;;6.53;3.17;;;10.40;63.60;;;;;;5046321;28;20049;-75
2023/05/01 03:15:55;;;;;;;9.27;3.53;;;10.40;63.70;;;;;;5029993;28;20049;-75
2023/05/01 03:18:22;;;;;;;8.50;3.70;;;10.30;63.70;;;;;;5026790;28;20057;-75
2023/05/01 03:20:52;;;;;;;6.80;3.38;;;10.30;63.70;;;;;;5060659;28;20041;-75
2023/05/01 03:23:20;;;;;;;6.82;3.30;;;10.30;63.80;;;;;;5038590;28;20060;-75
2023/05/01 03:25:47;;;;;;;6.67;3.33;;;10.30;63.80;;;;;;5027318;28;20510;-75
2023/05/01 03:28:14;;;;;;;6.65;3.40;;;10.30;63.90;;;;;;5052073;28;20049;-75
2023/05/01 03:30:42;;;;;;;6.30;3.45;;;10.20;64.00;;;;;;5029541;28;20638;-75
2023/05/01 03:33:10;;;;;;;7.45;3.60;;;10.20;64.10;;;;;;5029607;28;20324;-75
2023/05/01 03:35:37;;;;;;;8.15;3.50;;;10.20;64.10;;;;;;5029482;28;20990;-76
2023/05/01 03:38:05;;;;;;;7.87;3.07;;;10.20;64.20;;;;;;5029209;28;20498;-75
2023/05/01 03:40:51;;;;;;;7.32;3.30;;;10.10;64.20;;;;;;5041319;28;20084;-75
2023/05/01 03:43:37;;;;;;;8.23;3.50;;;10.10;64.10;;;;;;5035084;28;20054;-75
2023/05/01 03:46:10;;;;;;;7.18;3.63;;;10.10;64.10;;;;;;5042251;28;20077;-75
2023/05/01 03:48:37;;;;;;;8.32;3.47;;;10.00;64.30;;;;;;5032088;28;20168;-75
2023/05/01 03:51:05;;;;;;;7.83;3.33;;;10.00;64.30;;;;;;5041806;28;20048;-75
2023/05/01 03:53:33;;;;;;;7.30;3.67;;;10.00;64.40;;;;;;5027574;28;20137;-75
2023/05/01 03:56:04;;;;;;;7.43;3.58;;;10.00;64.60;;;;;;5041598;28;20055;-75
2023/05/01 03:58:31;;;;;;;7.82;3.70;;;9.90;64.70;;;;;;5042678;28;20586;-75
2023/05/01 04:00:59;;;;;;;6.93;3.28;;;9.80;64.70;;;;;;5045173;28;20393;-75
2023/05/01 04:03:28;;;;;;;8.43;3.63;;;9.80;64.80;;;;;;5045315;28;20662;-75
2023/05/01 04:05:56;;;;;;;7.97;3.90;;;9.80;64.80;;;;;;5025009;28;20550;-75
2023/05/01 04:08:23;;;;;;;8.00;3.60;;;9.70;64.90;;;;;;5026910;28;20657;-75
2023/05/01 04:10:50;;;;;;;8.60;3.22;;;9.70;64.80;;;;;;5040570;28;20135;-75
2023/05/01 04:13:17;;;;;;;7.38;3.28;;;9.70;64.80;;;;;;5042564;28;20053;-75
2023/05/01 04:15:45;;;;;;;6.87;3.30;;;9.70;65.00;;;;;;5025702;28;20427;-75
2023/05/01 04:18:13;;;;;;;6.88;3.28;;;9.70;65.00;;;;;;5024087;28;20510;-75
2023/05/01 04:20:41;;;;;;;7.13;3.75;;;9.70;65.00;;;;;;5025953;28;20121;-75
2023/05/01 04:23:08;;;;;;;7.68;3.88;;;9.70;65.10;;;;;;5051942;28;20095;-75
2023/05/01 04:25:36;;;;;;;8.57;3.58;;;9.60;65.10;;;;;;5043673;28;20076;-75
2023/05/01 04:28:10;;;;;;;6.50;3.10;;;9.60;65.00;;;;;;5027112;28;20046;-75
2023/05/01 04:30:38;;;;;;;6.97;3.50;;;9.60;65.10;;;;;;5042660;28;20167;-76
2023/05/01 04:33:10;;;;;;;7.18;3.67;;;9.60;65.20;;;;;;5036087;28;20104;-75
2023/05/01 04:35:38;;;;;;;7.40;3.35;;;9.60;65.30;;;;;;5030466;28;20041;-75
2023/05/01 04:38:09;;;;;;;7.53;3.30;;;9.60;65.40;;;;;;5047072;28;20345;-75
2023/05/01 04:40:36;;;;;;;6.53;3.13;;;9.50;65.50;;;;;;5049951;28;20058;-75
2023/05/01 04:43:04;;;;;;;7.70;3.33;;;9.50;65.50;;;;;;5031536;28;20174;-75
2023/05/01 04:45:32;;;;;;;8.65;3.67;;;9.40;65.70;;;;;;5031707;28;20123;-75
2023/05/01 04:47:59;;;;;;;9.00;3.50;;;9.40;65.90;;;;;;5046253;28;20107;-75
2023/05/01 04:50:26;;;;;;;10.32;3.35;;;9.40;66.00;;;;;;5029975;28;20049;-75
2023/05/01 04:52:53;;;;;;;8.00;3.50;;;9.40;66.10;;;;;;5042074;28;20052;-75
2023/05/01 04:55:21;;;;;;;7.07;3.45;;;9.40;66.20;;;;;;5031761;28;20049;-75
2023/05/01 04:58:03;;;;;;;8.85;3.85;;;9.40;66.40;;;;;;5032144;28;20806;-75
2023/05/01 05:00:31;;;;;;;8.23;3.75;;;9.40;66.40;;;;;;5056481;28;20435;-75
2023/05/01 05:02:58;;;;;;;9.73;3.40;;;9.40;66.50;;;;;;5031970;28;20053;-75
2023/05/01 05:05:27;;;;;;;8.10;3.60;;;9.40;66.60;;;;;;5031900;28;20155;-75
2023/05/01 05:07:54;;;;;;;7.78;3.45;;;9.40;66.70;;;;;;5049064;28;20075;-75
2023/05/01 05:10:41;;;;;;;8.27;3.33;;;9.40;66.70;;;;;;5030532;28;20061;-75
2023/05/01 05:13:30;;;;;;;8.52;3.65;;;9.40;66.90;;;;;;5042308;28;20049;-75
2023/05/01 05:16:01;;;;;;;7.72;3.60;;;9.40;67.00;;;;;;5038546;28;20045;-75
2023/05/01 05:18:28;;;;;;;9.83;3.67;;;9.30;67.10;;;;;;5030907;28;20054;-77
2023/05/01 05:20:56;;;;;;;7.88;3.78;;;9.30;67.30;;;;;;5046519;28;20135;-76
2023/05/01 05:23:24;;;;;;;8.25;3.60;;;9.30;67.50;;;;;;5029706;28;20046;-76
2023/05/01 05:25:53;;;;;;;8.43;3.80;;;9.30;67.50;;;;;;5042664;28;20113;-76
2023/05/01 05:28:20;;;;;;;8.48;3.83;;;9.40;67.40;;;;;;5044078;28;20633;-76
2023/05/01 05:30:48;;;;;;;8.60;3.67;;;9.40;67.30;;;;;;5034996;28;20048;-75
2023/05/01 05:33:17;;;;;;;9.35;4.07;;;9.40;67.70;;;;;;5044885;28;20570;-75
2023/05/01 05:35:45;;;;;;;8.70;4.00;;;9.40;67.40;;;;;;5028539;28;20046;-75
2023/05/01 05:38:12;;;;;;;8.25;4.07;;;9.40;67.40;;;;;;5040464;28;20046;-75
2023/05/01 05:40:41;;;;;;;9.68;4.05;;;9.40;67.50;;;;;;5030945;28;20053;-75
2023/05/01 05:43:10;;;;;;;10.20;4.30;;;9.40;67.50;;;;;;5031168;28;20054;-75
2023/05/01 05:45:38;;;;;;;8.13;4.10;;;9.40;67.80;;;;;;5047978;28;20061;-75
2023/05/01 05:48:05;;;;;;;8.82;4.55;;;9.40;67.40;;;;;;5047793;28;20065;-75
2023/05/01 05:50:35;;;;;;;11.60;4.82;;;9.40;67.50;;;;;;5028088;28;20049;-75
2023/05/01 05:53:03;;;;;;;8.75;4.50;;;9.40;67.90;;;;;;5029411;28;20045;-76
2023/05/01 05:55:31;;;;;;;8.27;4.30;;;9.40;68.00;;;;;;5033244;28;20053;-76
2023/05/01 05:58:01;;;;;;;11.63;4.65;;;9.40;68.00;;;;;;5047000;28;20053;-75
2023/05/01 06:00:30;;;;;;;7.75;4.13;;;9.40;68.20;;;;;;5046916;28;20045;-76
2023/05/01 06:03:01;;;;;;;10.55;4.80;;;9.40;68.20;;;;;;5030598;28;20053;-76
2023/05/01 06:05:30;;;;;;;9.38;4.55;;;9.40;68.60;;;;;;5046776;28;20052;-76
2023/05/01 06:07:57;;;;;;;10.03;4.30;;;9.50;68.40;;;;;;5030166;28;20049;-76
2023/05/01 06:10:24;;;;;;;10.43;4.68;;;9.50;68.50;;;;;;5024069;28;20410;-76
2023/05/01 06:12:51;;;;;;;9.38;4.40;;;9.50;68.90;;;;;;5027346;28;20054;-76
2023/05/01 06:15:18;;;;;;;10.07;4.68;;;9.50;68.80;;;;;;5043210;28;20132;-76
2023/05/01 06:17:53;;;;;;;10.98;4.75;;;9.60;69.00;;;;;;5028403;28;20148;-76
2023/05/01 06:20:21;;;;;;;10.93;4.43;;;9.60;68.80;;;;;;5043362;28;20045;-76
2023/05/01 06:22:50;;;;;;;9.35;4.47;;;9.60;68.70;;;;;;5031322;28;20129;-76
2023/05/01 06:25:22;;;;;;;10.68;4.60;;;9.70;69.30;;;;;;5029017;28;20045;-76
2023/05/01 06:27:50;;;;;;;9.93;3.97;;;9.70;69.10;;;;;;5031374;28;20049;-76
2023/05/01 06:30:20;;;;;;;10.65;4.38;;;9.70;69.10;;;;;;5048206;28;20148;-76
2023/05/01 06:32:47;;;;;;;10.13;4.17;;;9.70;69.50;;;;;;5044167;28;20047;-76
2023/05/01 06:35:16;;;;;;;10.57;3.92;;;9.80;69.50;;;;;;5042784;28;20496;-76
2023/05/01 06:37:43;;;;;;;8.65;4.32;;;9.80;69.70;;;;;;5030520;28;20127;-76
2023/05/01 06:40:12;;;;;;;10.60;4.43;;;9.80;69.80;;;;;;5030142;28;20770;-76
2023/05/01 06:42:40;;;;;;;8.50;4.28;;;9.90;69.50;;;;;;5030466;28;20121;-76
2023/05/01 06:45:08;;;;;;;7.40;3.80;;;10.00;69.80;;;;;;5030352;28;20092;-76
2023/05/01 06:47:35;;;;;;;9.90;4.32;;;10.00;70.00;;;;;;5030065;28;20049;-76
2023/05/01 06:50:03;;;;;;;9.82;4.13;;;10.00;70.00;;;;;;5045510;28;20084;-76
2023/05/01 06:52:31;;;;;;;8.52;4.13;;;10.00;69.90;;;;;;5044518;28;20191;-76
2023/05/01 06:54:58;;;;;;;9.52;4.40;;;10.10;69.80;;;;;;5029538;28;20048;-76
2023/05/01 06:57:25;;;;;;;11.00;4.40;;;10.10;70.00;;;;;;5029498;28;20122;-76
2023/05/01 06:59:52;;;;;;;14.32;4.75;;;10.20;70.10;;;;;;5019426;28;20054;-76
2023/05/01 07:02:20;;;;;;;8.82;3.50;;;10.20;70.30;;;;;;5044686;28;20136;-76
2023/05/01 07:04:47;;;;;;;7.95;3.70;;;10.30;70.30;;;;;;5032484;28;20053;-75
2023/05/01 07:07:14;;;;;;;8.98;4.00;;;10.30;69.80;;;;;;5045730;28;20935;-76
2023/05/01 07:09:43;;;;;;;8.40;3.40;;;10.40;69.60;;;;;;5045900;28;20056;-76
2023/05/01 07:12:10;;;;;;;8.32;3.75;;;10.40;69.50;;;;;;5042737;28;20049;-77
2023/05/01 07:14:37;;;;;;;9.63;3.95;;;10.50;69.20;;;;;;5056909;28;20557;-77
2023/05/01 07:17:05;;;;;;;9.13;3.72;;;10.50;68.70;;;;;;5047251;28;20052;-76
2023/05/01 07:19:32;;;;;;;10.27;3.78;;;10.60;68.50;;;;;;5048751;28;20058;-76
2023/05/01 07:22:00;;;;;;;8.90;3.87;;;10.60;68.30;;;;;;5044697;28;21071;-76
2023/05/01 07:24:27;;;;;;;11.43;3.97;;;10.70;67.60;;;;;;5046347;28;20844;-76
2023/05/01 07:26:55;;;;;;;10.30;3.78;;;10.70;67.50;;;;;;5045985;28;20045;-76
2023/05/01 07:29:22;;;;;;;8.85;3.70;;;10.70;67.60;;;;;;5063170;28;20046;-76
2023/05/01 07:31:49;;;;;;;9.18;3.60;;;10.80;67.50;;;;;;5041213;28;20046;-76
2023/05/01 07:34:18;;;;;;;8.00;3.80;;;10.80;67.50;;;;;;5028386;28;20053;-76
2023/05/01 07:36:45;;;;;;;8.35;3.72;;;10.90;67.60;;;;;;5038961;28;20123;-76
2023/05/01 07:39:13;;;;;;;9.93;3.78;;;11.00;67.50;;;;;;5045316;28;20054;-76
2023/05/01 07:41:40;;;;;;;8.05;3.75;;;11.00;67.30;;;;;;5043932;28;20498;-76
2023/05/01 07:44:09;;;;;;;9.48;3.78;;;11.00;67.20;;;;;;5046859;28;20053;-76
2023/05/01 07:46:36;;;;;;;10.17;3.87;;;11.10;67.10;;;;;;5046034;28;20049;-76
2023/05/01 07:49:04;;;;;;;8.60;4.43;;;11.10;67.10;;;;;;5046462;28;20072;-76
2023/05/01 07:51:31;;;;;;;9.13;4.05;;;11.10;66.90;;;;;;5028302;28;20056;-75
2023/05/01 07:54:02;;;;;;;11.93;3.80;;;11.20;66.90;;;;;;5045841;28;20092;-75
2023/05/01 07:56:29;;;;;;;7.93;3.70;;;11.30;66.80;;;;;;5042013;28;20051;-75
2023/05/01 07:58:56;;;;;;;8.50;3.33;;;11.30;66.60;;;;;;5057691;28;21048;-75
2023/05/01 08:01:25;;;;;;;7.85;3.63;;;11.30;66.40;;;;;;5039799;28;21015;-76
2023/05/01 08:03:52;;;;;;;9.88;3.30;;;11.40;66.00;;;;;;5045228;28;20066;-76
2023/05/01 08:06:20;;;;;;;7.90;3.50;;;11.40;65.80;;;;;;5038564;28;20522;-76
2023/05/01 08:08:47;;;;;;;9.98;3.92;;;11.50;65.90;;;;;;5041300;28;20059;-76
2023/05/01 08:11:15;;;;;;;8.70;3.60;;;11.50;66.00;;;;;;5030892;28;20048;-76
2023/05/01 08:13:42;;;;;;;11.82;4.00;;;11.50;66.10;;;;;;5046266;28;20155;-75
2023/05/01 08:16:09;;;;;;;8.40;3.22;;;11.50;66.20;;;;;;5048542;28;20052;-76
2023/05/01 08:18:38;;;;;;;8.68;3.90;;;11.60;66.20;;;;;;5040786;28;20463;-76
2023/05/01 08:21:05;;;;;;;8.82;3.70;;;11.70;66.30;;;;;;5045282;28;20439;-76
2023/05/01 08:23:33;;;;;;;8.23;4.00;;;11.70;66.40;;;;;;5048166;28;20115;-76
2023/05/01 08:26:00;;;;;;;8.80;3.45;;;11.70;66.50;;;;;;5050049;28;20045;-76
2023/05/01 08:28:27;;;;;;;9.00;3.53;;;11.80;66.60;;;;;;5045872;28;20104;-76
2023/05/01 08:30:54;;;;;;;9.48;3.90;;;11.90;66.60;;;;;;5047929;28;20053;-76
2023/05/01 08:33:21;;;;;;;8.10;3.83;;;11.90;66.60;;;;;;5047978;28;20426;-76
2023/05/01 08:35:50;;;;;;;9.40;4.20;;;12.00;66.20;;;;;;5043347;28;20570;-76
2023/05/01 08:38:17;;;;;;;8.65;3.85;;;12.00;65.90;;;;;;5044526;28;20046;-75
2023/05/01 08:40:50;;;;;;;9.10;3.83;;;12.10;65.60;;;;;;5035165;28;20046;-76
2023/05/01 08:43:18;;;;;;;7.90;3.92;;;12.10;65.30;;;;;;5047917;28;20784;-76
2023/05/01 08:45:47;;;;;;;8.02;3.63;;;12.20;65.00;;;;;;5063143;28;20087;-75
2023/05/01 08:48:17;;;;;;;8.23;3.80;;;12.20;64.80;;;;;;5048122;28;20037;-76
2023/05/01 08:50:46;;;;;;;8.60;3.80;;;12.30;64.70;;;;;;5031418;28;20491;-76
2023/05/01 08:53:15;;;;;;;8.20;3.58;;;12.40;64.30;;;;;;5044324;28;20140;-75
2023/05/01 08:55:46;;;;;;;8.43;4.05;;;12.50;64.10;;;;;;5062818;28;20053;-76
2023/05/01 08:58:14;;;;;;;8.38;3.25;;;12.50;64.00;;;;;;5043926;28;20091;-76
2023/05/01 09:00:42;;;;;;;9.03;3.33;;;12.50;64.10;;;;;;5045962;28;20053;-75
2023/05/01 09:03:11;;;;;;;10.70;4.07;;;12.70;64.20;;;;;;5062554;28;20045;-76
2023/05/01 09:05:39;;;;;;;10.15;3.58;;;12.70;64.10;;;;;;5047500;28;20418;-75
2023/05/01 09:08:06;;;;;;;7.43;3.00;;;12.80;64.10;;;;;;5047307;28;20802;-75
2023/05/01 09:10:42;;;;;;;8.00;3.30;;;12.90;64.00;;;;;;5048126;28;20057;-76
2023/05/01 09:13:10;;;;;;;7.57;2.60;;;13.00;63.90;;;;;;5046905;28;20593;-76
2023/05/01 09:15:43;;;;;;;6.95;3.10;;;13.10;63.90;;;;;;5050214;28;20064;-76
2023/05/01 09:18:11;;;;;;;9.00;3.10;;;13.10;63.70;;;;;;5043807;28;20054;-76
2023/05/01 09:20:38;;;;;;;8.45;2.85;;;13.20;63.70;;;;;;5046750;28;20057;-76
2023/05/01 09:23:06;;;;;;;7.25;2.15;;;13.30;63.70;;;;;;5041778;28;20052;-76
2023/05/01 09:25:32;;;;;;;5.63;2.20;;;13.30;63.20;;;;;;5081302;22;20502;-77
2023/05/01 09:28:01;;;;;;;7.00;1.90;;;13.40;62.70;;;;;;5040313;28;20586;-76
2023/05/01 09:30:33;;;;;;;7.30;2.00;;;13.50;62.20;;;;;;5045153;28;20061;-76
2023/05/01 09:33:07;;;;;;;6.07;2.25;;;13.50;61.90;;;;;;5045739;28;20128;-76
2023/05/01 09:35:52;;;;;;;9.10;2.85;;;13.60;62.00;;;;;;5045024;28;20136;-76
2023/05/01 09:38:20;;;;;;;6.63;2.50;;;13.60;61.80;;;;;;5043672;28;20129;-76
2023/05/01 09:40:47;;;;;;;6.10;2.60;;;13.70;61.70;;;;;;5041502;28;20710;-76
2023/05/01 09:43:25;;;;;;;5.93;2.65;;;13.80;60.90;;;;;;5040621;28;20590;-76
2023/05/01 09:46:04;;;;;;;6.28;2.83;;;13.90;61.00;;;;;;5047606;28;20049;-76
2023/05/01 09:48:31;;;;;;;6.93;2.85;;;14.00;61.30;;;;;;5038821;28;20054;-76
2023/05/01 09:50:58;;;;;;;7.97;2.83;;;14.10;61.80;;;;;;5044289;28;20050;-76
2023/05/01 09:53:38;;;;;;;5.68;2.03;;;14.20;62.20;;;;;;5046577;28;20050;-75
2023/05/01 09:56:06;;;;;;;6.38;2.33;;;14.30;61.60;;;;;;5045516;28;20089;-76
2023/05/01 09:58:34;;;;;;;6.13;2.65;;;14.30;61.30;;;;;;5038378;28;20509;-76
2023/05/01 10:01:01;;;;;;;5.93;2.55;;;14.40;61.30;;;;;;5039504;28;20054;-76
2023/05/01 10:03:28;;;;;;;6.57;2.60;;;14.50;60.80;;;;;;5040538;28;20071;-76
2023/05/01 10:05:59;;;;;;;6.57;2.40;;;14.60;60.50;;;;;;5043260;28;20053;-76
2023/05/01 10:08:26;;;;;;;5.75;2.28;;;14.70;60.70;;;;;;5044823;28;20038;-76
2023/05/01 10:11:01;;;;;;;6.15;1.90;;;14.80;61.20;;;;;;5041163;28;20133;-76
2023/05/01 10:13:29;;;;;;;4.95;1.73;;;14.80;60.80;;;;;;5044120;28;20202;-76
2023/05/01 10:16:00;;;;;;;6.47;1.70;;;14.90;60.40;;;;;;5041416;28;20053;-76
2023/05/01 10:18:29;;;;;;;5.97;2.10;;;15.00;61.10;;;;;;5041676;28;20153;-76
2023/05/01 10:20:56;;;;;;;6.40;1.75;;;15.10;59.80;;;;;;5041269;28;20056;-76
2023/05/01 10:23:25;;;;;;;5.95;2.13;;;15.20;58.90;;;;;;5040921;28;20049;-76
2023/05/01 10:25:53;;;;;;;7.18;2.30;;;15.30;58.90;;;;;;5043777;28;21389;-75
2023/05/01 10:28:21;;;;;;;4.17;1.70;;;15.30;58.90;;;;;;5018064;28;20051;-75
2023/05/01 10:30:49;;;;;;;5.18;1.70;;;15.40;59.10;;;;;;5044357;28;20053;-75
2023/05/01 10:33:18;;;;;;;6.93;1.80;;;15.50;59.10;;;;;;5037990;28;20056;-75
2023/05/01 10:35:55;;;;;;;6.65;2.13;;;15.50;58.30;;;;;;5042527;28;20055;-75
2023/05/01 10:38:25;;;;;;;5.20;2.10;;;15.60;58.00;;;;;;5044568;28;20048;-75
2023/05/01 10:40:53;;;;;;;4.83;2.00;;;15.70;58.50;;;;;;5040614;28;20597;-76
2023/05/01 10:43:27;;;;;;;5.95;1.92;;;15.80;57.70;;;;;;5036764;28;20053;-76
2023/05/01 10:45:55;;;;;;;5.45;1.77;;;15.80;57.90;;;;;;5044422;28;20064;-77
2023/05/01 10:48:54;;;;;;;4.25;1.80;;;15.90;57.90;;;;;;5040577;28;20056;-77
2023/05/01 10:51:23;;;;;;;6.40;1.80;;;16.00;58.40;;;;;;5034747;28;20057;-76
2023/05/01 10:54:24;;;;;;;4.33;1.20;;;16.00;57.60;;;;;;5047002;28;20057;-76
2023/05/01 10:56:51;;;;;;;2.85;0.70;;;16.10;57.60;;;;;;5043202;28;20103;-76
2023/05/01 10:59:19;;;;;;;2.83;0.90;;;16.20;58.00;;;;;;5037850;28;20124;-76
2023/05/01 11:01:47;;;;;;;2.92;0.85;;;16.30;57.90;;;;;;5046898;28;20056;-76
2023/05/01 11:04:49;;;;;;;4.65;0.85;;;16.40;57.90;;;;;;5041827;28;20496;-76
2023/05/01 11:07:20;;;;;;;4.13;1.20;;;16.40;57.50;;;;;;5041436;28;20053;-76
2023/05/01 11:09:50;;;;;;;3.42;1.00;;;16.50;57.40;;;;;;5036600;28;20117;-76
2023/05/01 11:12:52;;;;;;;3.83;1.10;;;16.60;57.20;;;;;;5026122;28;20108;-77
2023/05/01 11:15:33;;;;;;;3.40;0.80;;;16.70;58.00;;;;;;5035787;28;20050;-76
2023/05/01 11:18:01;;;;;;;4.15;1.02;;;16.80;57.50;;;;;;5037496;28;20145;-76
2023/05/01 11:20:49;;;;;;;2.53;0.70;;;16.80;55.60;;;;;;5036971;28;20053;-76
2023/05/01 11:23:20;;;;;;;2.85;0.90;;;16.90;56.20;;;;;;5039982;28;20129;-76
2023/05/01 11:25:51;;;;;;;3.55;1.10;;;17.00;56.20;;;;;;5039307;28;20057;-76
2023/05/01 11:28:21;;;;;;;3.58;0.80;;;17.00;55.00;;;;;;5041170;28;20473;-77
2023/05/01 11:30:49;;;;;;;4.20;1.20;;;17.10;54.50;;;;;;5022940;28;20522;-76
2023/05/01 11:33:24;;;;;;;4.57;1.00;;;17.20;53.70;;;;;;5025970;28;20201;-76
2023/05/01 11:36:03;;;;;;;4.35;0.80;;;17.20;54.90;;;;;;5042480;28;20061;-76
2023/05/01 11:38:30;;;;;;;3.20;0.98;;;17.40;55.90;;;;;;5037241;28;20084;-76
2023/05/01 11:41:00;;;;;;;2.85;0.68;;;17.50;55.00;;;;;;5037502;28;20050;-76
2023/05/01 11:43:27;;;;;;;3.28;0.70;;;17.50;54.50;;;;;;5047241;28;20167;-76
2023/05/01 11:46:00;;;;;;;2.10;0.50;;;17.60;54.20;;;;;;5049434;28;20057;-76
2023/05/01 11:48:31;;;;;;;3.10;0.80;;;17.60;54.10;;;;;;5044814;28;20059;-76
2023/05/01 11:50:58;;;;;;;5.20;1.00;;;17.80;53.00;;;;;;5048320;28;20050;-76
2023/05/01 11:53:27;;;;;;;4.53;1.00;;;17.80;53.50;;;;;;5050862;28;20111;-76
2023/05/01 11:55:54;;;;;;;3.22;1.10;;;17.90;53.00;;;;;;5040546;28;20076;-76
2023/05/01 11:58:32;;;;;;;3.10;0.90;;;18.00;50.80;;;;;;5040068;28;20050;-76
2023/05/01 12:00:59;;;;;;;3.60;0.80;;;18.00;52.20;;;;;;5037162;28;20865;-76
2023/05/01 12:03:27;;;;;;;2.67;0.80;;;18.00;52.40;;;;;;5043893;28;20053;-76
2023/05/01 12:05:54;;;;;;;4.25;1.00;;;18.10;52.30;;;;;;5047855;28;20045;-76
2023/05/01 12:08:22;;;;;;;3.30;0.90;;;18.10;53.30;;;;;;5042318;28;20519;-76
2023/05/01 12:10:52;;;;;;;4.43;1.27;;;18.20;52.20;;;;;;5047466;28;20073;-76
2023/05/01 12:13:20;;;;;;;3.83;1.40;;;18.30;51.10;;;;;;5047703;28;20053;-75
2023/05/01 12:15:49;;;;;;;5.00;1.55;;;18.30;50.00;;;;;;5041929;28;20971;-76
2023/05/01 12:18:17;;;;;;;4.55;1.60;;;18.30;50.10;;;;;;5040700;28;20053;-76
2023/05/01 12:20:46;;;;;;;4.00;1.27;;;18.30;50.20;;;;;;5043980;28;20996;-75
2023/05/01 12:23:14;;;;;;;3.70;1.30;;;18.30;49.90;;;;;;5042610;28;20167;-76
2023/05/01 12:25:43;;;;;;;3.70;1.10;;;18.30;50.70;;;;;;5044473;28;20050;-76
2023/05/01 12:28:14;;;;;;;4.30;1.58;;;18.40;50.60;;;;;;5046827;28;20662;-76
2023/05/01 12:30:42;;;;;;;3.97;1.10;;;18.40;51.10;;;;;;5044811;28;20045;-76
2023/05/01 12:33:11;;;;;;;3.88;1.20;;;18.40;51.60;;;;;;5044215;28;20052;-76
2023/05/01 12:35:39;;;;;;;3.83;1.30;;;18.50;51.70;;;;;;5043634;28;20060;-76
2023/05/01 12:38:14;;;;;;;4.05;1.20;;;18.50;52.20;;;;;;5042493;28;20057;-76
2023/05/01 12:40:51;;;;;;;3.67;1.30;;;18.60;52.90;;;;;;5045368;28;20053;-76
2023/05/01 12:43:20;;;;;;;3.22;1.20;;;18.70;52.90;;;;;;5045125;28;20049;-76
2023/05/01 12:45:52;;;;;;;4.63;1.40;;;18.80;52.70;;;;;;5022784;28;20046;-75
2023/05/01 12:48:20;;;;;;;4.20;1.40;;;18.80;52.70;;;;;;5040981;28;20057;-77
2023/05/01 12:51:03;;;;;;;6.43;1.23;;;18.90;52.50;;;;;;5050994;28;20178;-75
2023/05/01 12:53:30;;;;;;;4.55;1.30;;;19.00;53.00;;;;;;5037843;28;20074;-77
2023/05/01 12:55:58;;;;;;;3.90;1.20;;;19.10;52.80;;;;;;5038378;28;20058;-75
2023/05/01 12:58:35;;;;;;;4.13;1.55;;;19.20;53.40;;;;;;5039724;28;20085;-76
2023/05/01 13:01:02;;;;;;;3.57;1.20;;;19.30;55.50;;;;;;5043164;28;20915;-76
2023/05/01 13:03:30;;;;;;;4.63;1.65;;;19.40;54.00;;;;;;5039674;28;20050;-75